Time;durP1;ratioP1;P1;durP2;ratioP2;P2;SDS_P1;SDS_P2;PMS_P1;PMS_P2;Temp;Humidity;BMP_temperature;BMP_pressure;BME280_temperature;BME280_humidity;BME280_pressure;Samples;Min_cycle;Max_cycle;Signal;HPM_P1;HPM_P2
2022/04/21 00:00:56;;;;;;;5.67;5.20;;;9.30;99.90;;;;;;6288743;28;20224;-56
2022/04/21 00:03:59;;;;;;;6.80;5.40;;;9.20;99.90;;;;;;6308934;28;20236;-54
2022/04/21 00:07:01;;;;;;;7.90;6.03;;;9.20;99.90;;;;;;6309290;28;20363;-55
2022/04/21 00:10:05;;;;;;;6.23;5.37;;;9.20;99.90;;;;;;6305406;28;20369;-55
2022/04/21 00:13:08;;;;;;;5.90;5.33;;;9.20;99.90;;;;;;6312462;28;20256;-55
2022/04/21 00:16:12;;;;;;;6.30;5.70;;;9.10;99.90;;;;;;6311023;28;20244;-56
2022/04/21 00:19:15;;;;;;;5.93;5.37;;;9.20;99.90;;;;;;6299429;28;20327;-56
2022/04/21 00:25:38;;;;;;;8.40;5.87;;;9.20;99.90;;;;;;6288669;28;20245;-56
2022/04/21 00:28:41;;;;;;;6.03;5.53;;;9.10;99.90;;;;;;6287715;28;20785;-56
2022/04/21 00:31:45;;;;;;;5.70;5.27;;;9.20;99.90;;;;;;6308320;28;20502;-56
2022/04/21 00:34:49;;;;;;;5.87;5.47;;;9.10;99.90;;;;;;6299782;28;20232;-55
2022/04/21 00:37:53;;;;;;;6.50;5.63;;;9.00;99.90;;;;;;6304659;28;20217;-55
2022/04/21 00:40:56;;;;;;;5.63;5.17;;;9.10;99.90;;;;;;6297798;28;20608;-54
2022/04/21 00:43:59;;;;;;;9.17;6.03;;;9.00;99.90;;;;;;6308574;28;20366;-56
2022/04/21 00:47:05;;;;;;;12.53;5.20;;;9.00;99.90;;;;;;6308747;28;20720;-56
2022/04/21 00:50:13;;;;;;;6.07;5.37;;;9.00;99.90;;;;;;6282417;28;20322;-55
2022/04/21 00:53:16;;;;;;;5.97;5.40;;;8.90;99.90;;;;;;6284038;28;20453;-56
2022/04/21 01:13:37;;;;;;;6.70;6.10;;;8.70;99.90;;;;;;6303857;28;20232;-54
2022/04/21 01:16:39;;;;;;;8.80;6.40;;;8.70;99.90;;;;;;6314675;27;20232;-56
2022/04/21 01:19:42;;;;;;;6.37;5.83;;;8.80;99.90;;;;;;6309369;28;20337;-56
2022/04/21 01:22:46;;;;;;;7.90;5.93;;;8.70;99.90;;;;;;6307006;28;20248;-56
2022/04/21 01:25:50;;;;;;;6.37;5.60;;;8.70;99.90;;;;;;6282842;28;20338;-56
2022/04/21 01:28:53;;;;;;;7.13;6.27;;;8.70;99.90;;;;;;6288692;28;20482;-55
2022/04/21 01:31:56;;;;;;;8.77;6.57;;;8.60;99.90;;;;;;6308460;28;20320;-55
2022/04/21 01:34:59;;;;;;;7.37;5.83;;;8.60;99.90;;;;;;6295863;28;20812;-55
2022/04/21 01:41:23;;;;;;;6.80;6.20;;;8.60;99.90;;;;;;6306664;28;20289;-55
2022/04/21 01:44:26;;;;;;;8.10;6.07;;;8.60;99.90;;;;;;6302370;28;20317;-55
2022/04/21 01:47:28;;;;;;;6.87;6.00;;;8.50;99.90;;;;;;6284555;28;20282;-53
2022/04/21 01:50:31;;;;;;;8.00;6.70;;;8.60;99.90;;;;;;6283195;28;20546;-54
2022/04/21 01:53:35;;;;;;;6.23;5.77;;;8.50;99.90;;;;;;6299252;28;20597;-56
2022/04/21 01:56:38;;;;;;;10.73;6.57;;;8.60;99.90;;;;;;6305254;28;20382;-57
2022/04/21 01:59:41;;;;;;;7.57;5.80;;;8.50;99.90;;;;;;6308226;28;20277;-55
2022/04/21 02:02:44;;;;;;;7.63;6.03;;;8.70;99.90;;;;;;6303684;28;20312;-55
2022/04/21 02:05:47;;;;;;;8.63;6.10;;;8.50;99.90;;;;;;6311248;27;20343;-55
2022/04/21 02:08:51;;;;;;;7.47;5.90;;;8.40;99.90;;;;;;6305017;28;20272;-55
2022/04/21 02:11:53;;;;;;;8.13;5.97;;;8.40;99.90;;;;;;6301501;28;20240;-55
2022/04/21 02:14:56;;;;;;;7.50;6.13;;;8.40;99.90;;;;;;6309357;28;20321;-56
2022/04/21 02:18:00;;;;;;;9.07;6.67;;;8.40;99.90;;;;;;6296094;28;20229;-55
2022/04/21 02:21:03;;;;;;;9.50;6.30;;;8.40;99.90;;;;;;6278801;28;20297;-56
2022/04/21 02:24:07;;;;;;;6.73;6.07;;;8.40;99.90;;;;;;6309108;28;20273;-55
2022/04/21 02:27:11;;;;;;;9.20;5.93;;;8.30;99.90;;;;;;6293069;28;20480;-55
2022/04/21 02:30:15;;;;;;;8.70;6.40;;;8.40;99.90;;;;;;6304003;28;20236;-56
2022/04/21 02:33:18;;;;;;;6.87;6.27;;;8.40;99.90;;;;;;6319869;27;20684;-56
2022/04/21 02:36:21;;;;;;;10.53;6.23;;;8.30;1.00;;;;;;6297021;27;20730;-55
2022/04/21 02:39:25;;;;;;;7.87;5.90;;;8.40;1.00;;;;;;6303456;28;20240;-56
2022/04/21 02:42:28;;;;;;;7.37;6.10;;;8.40;1.00;;;;;;6301043;28;20609;-55
2022/04/21 02:45:31;;;;;;;9.90;6.10;;;8.40;1.00;;;;;;6313805;28;20236;-55
2022/04/21 02:48:34;;;;;;;9.67;6.30;;;8.40;1.00;;;;;;6297190;28;20841;-56
2022/04/21 02:51:37;;;;;;;7.00;5.97;;;8.50;99.90;;;;;;6287893;28;20233;-54
2022/04/21 02:58:02;;;;;;;13.73;7.23;;;8.40;99.90;;;;;;6289016;28;20654;-55
2022/04/21 03:01:05;;;;;;;15.63;6.77;;;8.40;99.90;;;;;;6296249;28;20245;-55
2022/04/21 03:04:08;;;;;;;10.00;6.60;;;8.40;99.90;;;;;;6321293;27;20300;-55
2022/04/21 03:07:13;;;;;;;7.17;6.20;;;8.30;1.00;;;;;;6313803;27;20413;-55
2022/04/21 03:10:17;;;;;;;10.67;8.03;;;8.30;1.00;;;;;;6314880;27;20549;-55
2022/04/21 03:13:19;;;;;;;7.83;7.13;;;8.30;1.00;;;;;;6308504;28;20746;-54
2022/04/21 03:16:22;;;;;;;10.20;7.83;;;8.40;99.90;;;;;;6287433;28;20489;-55
2022/04/21 03:19:25;;;;;;;10.77;9.00;;;8.50;1.00;;;;;;6284977;28;20260;-56
2022/04/21 03:25:49;;;;;;;7.47;6.80;;;8.40;99.90;;;;;;6313356;28;20930;-54
2022/04/21 03:28:52;;;;;;;9.97;7.40;;;8.40;99.90;;;;;;6306756;28;20712;-55
2022/04/21 03:31:54;;;;;;;7.07;6.23;;;8.40;99.90;;;;;;6294535;28;20244;-54
2022/04/21 03:34:59;;;;;;;6.90;6.13;;;8.40;99.90;;;;;;6311197;28;20503;-55
2022/04/21 03:38:02;;;;;;;9.20;7.00;;;8.30;99.90;;;;;;6307282;28;20300;-54
2022/04/21 03:41:06;;;;;;;10.90;6.87;;;8.40;99.90;;;;;;6307617;28;20241;-57
2022/04/21 03:44:10;;;;;;;6.70;6.10;;;8.30;1.00;;;;;;6312577;28;20761;-54
2022/04/21 03:47:13;;;;;;;8.37;6.57;;;8.40;1.00;;;;;;6307864;28;20240;-55
2022/04/21 03:50:16;;;;;;;7.10;6.50;;;8.30;1.00;;;;;;6304362;28;20398;-56
2022/04/21 03:53:19;;;;;;;10.33;7.37;;;8.30;1.00;;;;;;6306256;28;20881;-55
2022/04/21 03:56:22;;;;;;;12.57;6.73;;;8.40;1.00;;;;;;6308360;28;20487;-56
2022/04/21 03:59:26;;;;;;;9.40;6.63;;;8.20;1.00;;;;;;6310449;28;20233;-56
2022/04/21 04:02:28;;;;;;;7.13;6.40;;;8.30;1.00;;;;;;6303523;28;20401;-56
2022/04/21 04:05:31;;;;;;;8.63;6.27;;;8.30;1.00;;;;;;6308253;28;20260;-56
2022/04/21 04:11:56;;;;;;;9.80;7.20;;;8.30;1.00;;;;;;6330458;27;20243;-56
2022/04/21 04:14:59;;;;;;;7.70;7.00;;;8.20;1.00;;;;;;6336376;27;20243;-53
2022/04/21 04:18:06;;;;;;;8.70;6.53;;;8.30;1.00;;;;;;6334912;27;20232;-55
2022/04/21 04:21:12;;;;;;;13.60;7.00;;;8.60;1.00;;;;;;6334762;27;20410;-55
2022/04/21 04:24:14;;;;;;;8.30;6.97;;;8.30;1.00;;;;;;6296350;28;20285;-56
2022/04/21 04:27:18;;;;;;;8.63;7.17;;;8.30;1.00;;;;;;6306042;28;20320;-54
2022/04/21 04:30:21;;;;;;;14.13;7.40;;;8.30;1.00;;;;;;6302303;28;20752;-60
2022/04/21 04:33:24;;;;;;;7.13;6.53;;;8.30;1.00;;;;;;6309365;28;20244;-55
2022/04/21 04:36:28;;;;;;;7.73;6.90;;;8.30;1.00;;;;;;6300643;28;20297;-56
2022/04/21 04:39:31;;;;;;;11.30;6.97;;;8.30;1.00;;;;;;6323961;27;20586;-54
2022/04/21 04:42:35;;;;;;;9.33;6.93;;;8.30;1.00;;;;;;6336814;27;20231;-55
2022/04/21 04:48:58;;;;;;;7.13;6.43;;;8.30;1.00;;;;;;6331644;27;20239;-55
2022/04/21 04:52:01;;;;;;;7.27;6.57;;;8.30;1.00;;;;;;6333263;27;20281;-56
2022/04/21 04:55:08;;;;;;;8.00;7.10;;;8.40;1.00;;;;;;6306474;28;20741;-56
2022/04/21 04:58:12;;;;;;;11.17;7.03;;;8.30;1.00;;;;;;6308705;27;20688;-56
2022/04/21 05:01:18;;;;;;;9.70;7.37;;;8.40;1.00;;;;;;6311510;28;20311;-55
2022/04/21 05:04:22;;;;;;;12.93;7.27;;;8.40;1.00;;;;;;6302088;28;20351;-57
2022/04/21 05:07:25;;;;;;;7.47;6.77;;;8.40;1.00;;;;;;6314720;28;20296;-54
2022/04/21 05:10:28;;;;;;;9.03;7.00;;;8.40;1.00;;;;;;6330937;28;20288;-54
2022/04/21 05:13:33;;;;;;;9.87;7.07;;;8.40;1.00;;;;;;6324887;28;20727;-56
2022/04/21 05:16:41;;;;;;;8.87;7.07;;;8.40;1.00;;;;;;6335481;28;20244;-56
2022/04/21 05:19:45;;;;;;;8.97;7.00;;;8.40;1.00;;;;;;6337499;27;20716;-56
2022/04/21 05:22:50;;;;;;;10.60;8.00;;;8.40;1.00;;;;;;6330594;27;20660;-55
2022/04/21 05:25:53;;;;;;;8.83;7.47;;;8.40;1.00;;;;;;6331644;28;20236;-54
2022/04/21 05:28:59;;;;;;;12.30;8.17;;;8.50;1.00;;;;;;6333224;28;20260;-54
2022/04/21 05:32:03;;;;;;;8.03;7.17;;;8.40;1.00;;;;;;6331352;28;20514;-55
2022/04/21 05:35:06;;;;;;;8.33;7.43;;;8.40;1.00;;;;;;6329264;28;20240;-55
2022/04/21 05:38:10;;;;;;;7.70;7.00;;;8.50;1.00;;;;;;6338809;27;20228;-55
2022/04/21 05:41:15;;;;;;;12.37;7.77;;;8.50;1.00;;;;;;6332237;28;20232;-55
2022/04/21 05:44:20;;;;;;;8.00;7.20;;;8.50;1.00;;;;;;6329959;28;20667;-56
2022/04/21 05:47:23;;;;;;;8.77;7.87;;;8.50;1.00;;;;;;6334267;28;20310;-54
2022/04/21 05:50:27;;;;;;;9.97;8.10;;;8.60;1.00;;;;;;6332390;28;20319;-54
2022/04/21 05:53:34;;;;;;;12.10;8.07;;;8.60;1.00;;;;;;6333494;27;20322;-54
2022/04/21 05:56:38;;;;;;;15.70;8.33;;;8.60;1.00;;;;;;6326547;28;20326;-54
2022/04/21 05:59:42;;;;;;;10.30;7.47;;;8.60;1.00;;;;;;6331555;28;20404;-54
2022/04/21 06:02:44;;;;;;;11.57;7.70;;;8.60;1.00;;;;;;6329462;28;20643;-56
2022/04/21 06:05:47;;;;;;;11.10;7.60;;;8.60;1.00;;;;;;6332475;28;20240;-54
2022/04/21 06:08:50;;;;;;;9.87;7.80;;;8.60;1.00;;;;;;6332350;28;20261;-55
2022/04/21 06:11:53;;;;;;;13.93;8.23;;;8.60;1.00;;;;;;6323197;27;20931;-55
2022/04/21 06:14:57;;;;;;;12.37;8.23;;;8.70;1.00;;;;;;6340474;27;20356;-56
2022/04/21 06:18:00;;;;;;;8.43;7.60;;;8.70;1.00;;;;;;6337103;27;20235;-56
2022/04/21 06:21:03;;;;;;;8.90;7.27;;;8.80;1.00;;;;;;6331081;28;20706;-55
2022/04/21 06:24:07;;;;;;;14.80;8.67;;;8.80;1.00;;;;;;6322643;28;20365;-54
2022/04/21 06:27:10;;;;;;;10.80;7.27;;;8.90;1.00;;;;;;6293966;28;20268;-53
2022/04/21 06:30:14;;;;;;;11.87;7.47;;;9.00;1.00;;;;;;6298798;28;20372;-54
2022/04/21 06:33:16;;;;;;;9.87;6.90;;;9.10;1.00;;;;;;6299238;28;20254;-54
2022/04/21 06:36:19;;;;;;;8.83;7.00;;;9.20;1.00;;;;;;6306543;28;20709;-55
2022/04/21 06:39:22;;;;;;;9.83;7.30;;;9.30;1.00;;;;;;6304266;28;20236;-55
2022/04/21 06:42:25;;;;;;;8.30;6.50;;;9.40;1.00;;;;;;6305750;28;20256;-55
2022/04/21 06:48:49;;;;;;;13.20;7.20;;;9.60;1.00;;;;;;6299811;28;20262;-54
2022/04/21 06:51:52;;;;;;;7.87;6.73;;;9.70;1.00;;;;;;6307284;28;20264;-56
2022/04/21 06:54:54;;;;;;;7.50;6.57;;;9.80;1.00;;;;;;6304558;28;20256;-54
2022/04/21 06:57:58;;;;;;;9.80;6.40;;;9.90;1.00;;;;;;6301647;28;20229;-56
2022/04/21 07:01:03;;;;;;;13.27;6.47;;;10.00;1.00;;;;;;6305649;28;20247;-54
2022/04/21 07:04:06;;;;;;;7.83;6.13;;;10.10;1.00;;;;;;6306897;28;20737;-53
2022/04/21 07:07:08;;;;;;;10.57;7.27;;;10.20;99.90;;;;;;6305498;28;20489;-55
2022/04/21 07:10:12;;;;;;;7.93;6.97;;;10.20;99.90;;;;;;6302056;28;20232;-55
2022/04/21 07:13:15;;;;;;;7.60;6.90;;;10.30;99.90;;;;;;6310531;28;20726;-55
2022/04/21 07:16:19;;;;;;;8.43;6.00;;;10.40;99.90;;;;;;6328433;27;20723;-55
2022/04/21 07:19:22;;;;;;;10.87;6.93;;;10.40;99.90;;;;;;6329633;28;20554;-54
2022/04/21 07:22:25;;;;;;;10.83;6.77;;;10.30;99.90;;;;;;6335529;27;20319;-55
2022/04/21 07:25:28;;;;;;;10.00;6.63;;;10.30;99.90;;;;;;6333094;27;20793;-55
2022/04/21 07:28:32;;;;;;;9.93;6.87;;;10.30;99.90;;;;;;6326952;27;20326;-55
2022/04/21 07:31:37;;;;;;;8.83;6.53;;;10.40;99.90;;;;;;6328668;27;20344;-54
2022/04/21 07:34:41;;;;;;;7.13;6.50;;;10.30;99.90;;;;;;6335966;27;20739;-54
2022/04/21 07:37:45;;;;;;;11.80;6.60;;;10.30;99.90;;;;;;6335232;27;20612;-54
2022/04/21 07:40:50;;;;;;;10.03;6.60;;;10.30;99.90;;;;;;6331170;27;20897;-55
2022/04/21 07:43:53;;;;;;;11.47;7.23;;;10.30;99.90;;;;;;6335400;27;20277;-55
2022/04/21 07:46:57;;;;;;;11.70;6.80;;;10.30;99.90;;;;;;6335926;28;20800;-55
2022/04/21 07:50:00;;;;;;;8.07;6.70;;;10.30;99.90;;;;;;6336595;27;20239;-55
2022/04/21 07:53:16;;;;;;;12.47;7.03;;;10.20;99.90;;;;;;6336058;27;20265;-54
2022/04/21 07:56:19;;;;;;;10.00;6.83;;;10.20;99.90;;;;;;6330926;28;20356;-55
2022/04/21 07:59:22;;;;;;;8.63;7.47;;;10.20;99.90;;;;;;6333395;27;20255;-54
2022/04/21 08:02:26;;;;;;;11.33;7.07;;;10.30;99.90;;;;;;6334047;27;20236;-54
2022/04/21 08:05:29;;;;;;;10.47;6.80;;;10.30;99.90;;;;;;6334006;28;20266;-55
2022/04/21 08:08:32;;;;;;;7.50;6.23;;;10.30;99.90;;;;;;6330203;27;20646;-56
2022/04/21 08:11:34;;;;;;;10.73;6.90;;;10.30;99.90;;;;;;6330737;28;20278;-55
2022/04/21 08:14:37;;;;;;;9.97;8.00;;;10.30;99.90;;;;;;6333612;28;20372;-55
2022/04/21 08:17:41;;;;;;;7.63;6.73;;;10.30;99.90;;;;;;6341085;27;20719;-54
2022/04/21 08:20:44;;;;;;;8.43;7.50;;;10.30;99.90;;;;;;6334569;27;20326;-55
2022/04/21 08:23:47;;;;;;;7.83;7.13;;;10.40;99.90;;;;;;6330770;27;20223;-55
2022/04/21 08:33:49;;;;;;;9.97;7.47;;;10.60;99.90;;;;;;6303462;28;20815;-55
2022/04/21 08:36:52;;;;;;;9.10;7.10;;;10.60;1.00;;;;;;6308333;28;20789;-54
2022/04/21 08:39:55;;;;;;;9.80;7.60;;;10.70;1.00;;;;;;6310547;27;20232;-54
2022/04/21 08:43:01;;;;;;;8.43;7.67;;;10.90;1.00;;;;;;6333905;27;20545;-55
2022/04/21 08:46:04;;;;;;;9.33;7.73;;;10.90;1.00;;;;;;6333874;27;20871;-54
2022/04/21 08:49:10;;;;;;;7.90;7.03;;;11.10;1.00;;;;;;6332174;28;20243;-55
2022/04/21 08:52:13;;;;;;;9.23;7.57;;;11.30;1.00;;;;;;6332828;28;20365;-55
2022/04/21 08:55:17;;;;;;;9.70;7.63;;;11.50;99.90;;;;;;6330720;27;20322;-56
2022/04/21 08:58:21;;;;;;;10.63;7.73;;;11.70;99.90;;;;;;6329293;28;20375;-54
2022/04/21 09:01:24;;;;;;;9.63;7.43;;;11.70;99.90;;;;;;6304630;28;20607;-56
2022/04/21 09:04:30;;;;;;;9.70;7.60;;;11.70;99.90;;;;;;6309218;28;20308;-54
2022/04/21 09:07:44;;;;;;;8.20;7.40;;;11.80;99.90;;;;;;6291016;28;20253;-55
2022/04/21 09:11:08;;;;;;;8.83;6.90;;;11.90;99.90;;;;;;6300557;28;20490;-55
2022/04/21 09:14:16;;;;;;;9.80;7.67;;;12.00;99.90;;;;;;6300522;28;20239;-56
2022/04/21 09:17:18;;;;;;;8.40;7.50;;;12.20;99.90;;;;;;6318079;27;20364;-55
2022/04/21 09:20:24;;;;;;;9.10;7.00;;;12.30;99.90;;;;;;6332478;27;20287;-59
2022/04/21 09:23:34;;;;;;;11.83;7.47;;;12.40;99.90;;;;;;6310785;27;20327;-55
2022/04/21 09:26:36;;;;;;;8.20;7.47;;;12.40;99.90;;;;;;6305195;28;20812;-54
2022/04/21 09:29:39;;;;;;;12.17;7.60;;;12.40;99.90;;;;;;6305163;28;20312;-56
2022/04/21 09:32:43;;;;;;;11.03;8.27;;;12.50;99.90;;;;;;6304644;28;20469;-55
2022/04/21 09:35:47;;;;;;;8.13;7.20;;;12.50;99.90;;;;;;6306604;28;20743;-55
2022/04/21 09:38:58;;;;;;;9.70;7.50;;;12.50;99.90;;;;;;6300022;28;20311;-56
2022/04/21 09:42:01;;;;;;;8.13;7.30;;;12.60;99.90;;;;;;6304600;28;20729;-55
2022/04/21 09:48:31;;;;;;;9.20;8.47;;;12.40;99.90;;;;;;6306292;28;20536;-53
2022/04/21 09:51:35;;;;;;;9.33;8.03;;;12.40;99.90;;;;;;6306887;28;20470;-55
2022/04/21 09:54:39;;;;;;;9.17;8.30;;;12.30;99.90;;;;;;6304722;28;20369;-55
2022/04/21 09:57:43;;;;;;;9.67;8.77;;;12.30;99.90;;;;;;6303963;28;20297;-55
2022/04/21 10:00:46;;;;;;;9.13;8.40;;;12.30;99.90;;;;;;6301220;28;20605;-53
2022/04/21 10:03:49;;;;;;;9.27;8.57;;;12.40;99.90;;;;;;6299255;28;20228;-54
2022/04/21 10:06:54;;;;;;;11.57;9.50;;;12.50;99.90;;;;;;6303738;28;20228;-55
2022/04/21 10:09:58;;;;;;;12.70;10.30;;;12.50;99.90;;;;;;6309940;27;20326;-55
2022/04/21 10:13:03;;;;;;;11.40;10.20;;;12.50;99.90;;;;;;6331268;27;20779;-56
2022/04/21 10:16:07;;;;;;;11.80;10.57;;;12.40;99.90;;;;;;6332611;27;20262;-56
2022/04/21 10:19:12;;;;;;;11.83;10.40;;;12.40;99.90;;;;;;6331857;27;20232;-55
2022/04/21 10:22:17;;;;;;;11.37;9.90;;;12.40;99.90;;;;;;6303167;28;20750;-56
2022/04/21 10:25:23;;;;;;;12.23;11.20;;;12.30;99.90;;;;;;6303551;28;20278;-55
2022/04/21 10:28:40;;;;;;;13.23;11.53;;;12.30;99.90;;;;;;6287923;28;20791;-54
2022/04/21 10:31:49;;;;;;;13.33;11.70;;;12.20;99.90;;;;;;6305823;28;20239;-56
2022/04/21 10:34:56;;;;;;;13.30;12.00;;;12.20;99.90;;;;;;6329221;28;20316;-55
2022/04/21 10:38:25;;;;;;;12.57;11.30;;;12.20;99.90;;;;;;6331583;28;20232;-56
2022/04/21 10:41:36;;;;;;;11.90;10.90;;;12.10;99.90;;;;;;6303372;28;20342;-55
2022/04/21 10:44:43;;;;;;;14.07;11.63;;;12.20;99.90;;;;;;6309921;27;20278;-55
2022/04/21 10:48:04;;;;;;;11.73;10.80;;;12.20;99.90;;;;;;6319629;28;20232;-56
2022/04/21 10:51:07;;;;;;;12.77;11.63;;;12.30;99.90;;;;;;6307943;28;20621;-54
2022/04/21 10:57:40;;;;;;;16.27;11.50;;;12.50;99.90;;;;;;6303042;28;20279;-54
2022/04/21 11:00:43;;;;;;;12.50;11.37;;;12.50;99.90;;;;;;6307274;28;20633;-54
2022/04/21 11:04:04;;;;;;;15.23;11.03;;;12.50;99.90;;;;;;6311549;28;20232;-55
2022/04/21 11:07:10;;;;;;;11.73;10.50;;;12.60;99.90;;;;;;6305780;28;20494;-55
2022/04/21 11:10:28;;;;;;;13.07;10.70;;;12.70;99.90;;;;;;6304398;28;20237;-54
2022/04/21 11:13:42;;;;;;;11.50;10.60;;;12.80;99.90;;;;;;6311207;28;20235;-55
2022/04/21 11:16:48;;;;;;;11.43;10.23;;;12.90;99.90;;;;;;6308214;28;20448;-55
2022/04/21 11:19:54;;;;;;;11.97;10.57;;;13.20;99.90;;;;;;6311169;28;20249;-55
2022/04/21 11:22:57;;;;;;;10.10;9.37;;;13.40;99.90;;;;;;6311435;28;20324;-55
2022/04/21 11:26:05;;;;;;;13.17;9.93;;;13.50;99.90;;;;;;6307079;28;20278;-56
2022/04/21 11:29:07;;;;;;;10.27;9.23;;;13.60;99.90;;;;;;6320006;27;20236;-53
2022/04/21 11:32:15;;;;;;;10.17;9.20;;;13.70;99.90;;;;;;6336285;27;20243;-53
2022/04/21 11:35:21;;;;;;;9.63;8.63;;;13.70;99.90;;;;;;6333297;27;20236;-55
2022/04/21 11:38:23;;;;;;;9.60;7.93;;;13.90;99.90;;;;;;6335865;27;20719;-55
2022/04/21 11:41:27;;;;;;;9.57;8.63;;;14.10;99.90;;;;;;6325864;27;20228;-56
2022/04/21 11:44:30;;;;;;;8.63;7.83;;;14.20;99.90;;;;;;6310839;28;20484;-61
2022/04/21 11:47:33;;;;;;;9.27;8.30;;;14.20;99.90;;;;;;6311149;28;20283;-56
2022/04/21 11:50:36;;;;;;;9.77;8.30;;;14.30;99.90;;;;;;6303612;28;20233;-55
2022/04/21 11:53:41;;;;;;;8.80;7.93;;;14.20;99.90;;;;;;6303007;28;20243;-55
2022/04/21 11:56:50;;;;;;;8.77;7.97;;;14.10;99.90;;;;;;6306594;28;20309;-54
2022/04/21 12:00:01;;;;;;;9.23;8.40;;;14.00;99.90;;;;;;6307760;28;20721;-54
2022/04/21 12:06:32;;;;;;;8.03;7.30;;;13.80;99.90;;;;;;6310154;28;20534;-53
2022/04/21 12:09:42;;;;;;;8.80;8.17;;;13.70;99.90;;;;;;6303738;28;20270;-50
2022/04/21 12:12:46;;;;;;;8.43;7.73;;;13.70;99.90;;;;;;6320630;27;20320;-56
2022/04/21 12:15:54;;;;;;;11.77;8.23;;;13.70;99.90;;;;;;6334816;28;20774;-55
2022/04/21 12:18:57;;;;;;;8.87;7.97;;;13.70;99.90;;;;;;6329107;28;20235;-56
2022/04/21 12:22:05;;;;;;;8.57;7.77;;;13.60;99.90;;;;;;6329116;27;20238;-54
2022/04/21 12:25:12;;;;;;;7.60;7.10;;;13.70;99.90;;;;;;6331366;28;20248;-55
2022/04/21 12:28:16;;;;;;;7.70;7.20;;;13.90;99.90;;;;;;6332837;28;20311;-55
2022/04/21 12:31:20;;;;;;;7.83;7.13;;;14.00;99.90;;;;;;6303312;28;20233;-55
2022/04/21 12:34:26;;;;;;;10.00;7.30;;;14.00;99.90;;;;;;6300680;28;20229;-55
2022/04/21 12:37:31;;;;;;;9.33;7.33;;;14.10;99.90;;;;;;6307280;28;20312;-54
2022/04/21 12:40:34;;;;;;;8.07;7.47;;;14.10;99.90;;;;;;6305277;28;20258;-56
2022/04/21 12:43:38;;;;;;;7.33;6.73;;;13.90;99.90;;;;;;6309884;28;20615;-55
2022/04/21 12:46:41;;;;;;;7.90;7.30;;;13.90;99.90;;;;;;6303602;28;20287;-55
2022/04/21 12:49:58;;;;;;;8.30;7.57;;;13.80;99.90;;;;;;6308959;28;20311;-56
2022/04/21 12:53:01;;;;;;;7.73;6.97;;;13.80;99.90;;;;;;6308063;28;20766;-54
2022/04/21 12:56:10;;;;;;;9.37;7.47;;;13.80;99.90;;;;;;6299614;28;20239;-56
2022/04/21 12:59:14;;;;;;;9.00;6.83;;;13.70;99.90;;;;;;6321313;28;20537;-54
2022/04/21 13:02:17;;;;;;;7.40;6.83;;;13.60;99.90;;;;;;6317649;27;20712;-56
2022/04/21 13:05:20;;;;;;;7.23;6.63;;;13.50;99.90;;;;;;6309729;28;20306;-55
2022/04/21 13:08:24;;;;;;;7.97;7.27;;;13.40;99.90;;;;;;6309460;28;20232;-56
2022/04/21 13:11:27;;;;;;;7.50;7.00;;;13.30;99.90;;;;;;6315720;28;20611;-55
2022/04/21 13:14:31;;;;;;;8.00;7.33;;;13.30;99.90;;;;;;6328917;28;20231;-56
2022/04/21 13:17:34;;;;;;;7.10;6.70;;;13.20;99.90;;;;;;6332924;28;20240;-54
2022/04/21 13:23:57;;;;;;;7.57;7.07;;;13.10;99.90;;;;;;6314819;27;20623;-54
2022/04/21 13:27:01;;;;;;;7.40;6.90;;;13.00;99.90;;;;;;6327113;27;20232;-54
2022/04/21 13:30:06;;;;;;;7.53;7.13;;;13.00;99.90;;;;;;6327488;27;20370;-54
2022/04/21 13:33:23;;;;;;;8.37;7.87;;;13.00;99.90;;;;;;6335378;28;20389;-56
2022/04/21 13:36:26;;;;;;;8.33;7.63;;;13.00;99.90;;;;;;6331086;27;20232;-55
2022/04/21 13:39:30;;;;;;;7.67;6.93;;;12.90;99.90;;;;;;6331826;27;20232;-53
2022/04/21 13:42:35;;;;;;;9.07;7.70;;;12.90;99.90;;;;;;6333457;28;20277;-56
2022/04/21 13:45:39;;;;;;;8.80;8.03;;;12.90;99.90;;;;;;6326260;27;20324;-55
2022/04/21 13:48:43;;;;;;;8.80;8.00;;;13.00;99.90;;;;;;6324202;27;20377;-50
2022/04/21 13:51:45;;;;;;;8.30;7.73;;;13.10;99.90;;;;;;6332457;28;20708;-55
2022/04/21 13:54:54;;;;;;;8.50;7.90;;;13.20;99.90;;;;;;6323644;28;20243;-54
2022/04/21 13:57:57;;;;;;;9.00;8.40;;;13.10;99.90;;;;;;6331913;28;20235;-53
2022/04/21 14:01:02;;;;;;;8.30;7.73;;;13.20;99.90;;;;;;6332008;27;20228;-55
2022/04/21 14:04:06;;;;;;;9.13;8.43;;;13.20;99.90;;;;;;6332871;28;20274;-56
2022/04/21 14:07:08;;;;;;;8.77;8.17;;;13.30;99.90;;;;;;6339874;27;20377;-55
2022/04/21 14:10:11;;;;;;;9.07;8.07;;;13.30;99.90;;;;;;6325406;28;20263;-56
2022/04/21 14:13:14;;;;;;;10.00;9.10;;;13.30;99.90;;;;;;6328968;28;20235;-55
2022/04/21 14:16:18;;;;;;;9.97;9.07;;;13.20;99.90;;;;;;6333135;28;20600;-56
2022/04/21 14:19:37;;;;;;;9.73;9.03;;;13.10;99.90;;;;;;6318733;27;20238;-55
2022/04/21 14:22:40;;;;;;;8.90;8.27;;;13.10;99.90;;;;;;6308654;28;20242;-55
2022/04/21 14:25:43;;;;;;;9.07;8.37;;;12.90;99.90;;;;;;6309303;28;20744;-54
2022/04/21 14:28:46;;;;;;;8.80;8.10;;;12.90;99.90;;;;;;6307030;28;20279;-56
2022/04/21 14:31:50;;;;;;;9.60;9.00;;;12.80;99.90;;;;;;6309893;28;20252;-56
2022/04/21 14:34:53;;;;;;;9.00;8.40;;;12.80;99.90;;;;;;6312537;28;20775;-56
2022/04/21 14:44:41;;;;;;;8.43;7.93;;;13.00;1.00;;;;;;6318383;28;20937;-57
2022/04/21 14:47:47;;;;;;;9.20;8.57;;;13.20;1.00;;;;;;6311886;28;20501;-56
2022/04/21 14:50:50;;;;;;;8.80;8.30;;;13.30;1.00;;;;;;6310575;28;20733;-57
2022/04/21 14:53:52;;;;;;;9.40;8.80;;;13.30;1.00;;;;;;6311033;28;20362;-56
2022/04/21 14:56:55;;;;;;;8.97;8.37;;;13.40;1.00;;;;;;6309291;28;20242;-56
2022/04/21 14:59:58;;;;;;;9.10;8.40;;;13.40;1.00;;;;;;6311792;28;20301;-55
2022/04/21 15:03:02;;;;;;;9.23;8.33;;;13.50;1.00;;;;;;6308326;28;20228;-57
2022/04/21 15:06:06;;;;;;;9.30;8.60;;;13.40;1.00;;;;;;6307076;28;20255;-57
2022/04/21 15:09:09;;;;;;;8.70;8.17;;;13.30;1.00;;;;;;6294034;28;20260;-55
2022/04/21 15:12:11;;;;;;;8.70;7.93;;;13.30;1.00;;;;;;6307574;28;20740;-56
2022/04/21 15:15:14;;;;;;;9.87;8.90;;;13.30;1.00;;;;;;6319600;28;20236;-55
2022/04/21 15:18:19;;;;;;;9.43;8.63;;;13.20;1.00;;;;;;6326541;27;20612;-55
2022/04/21 15:21:21;;;;;;;8.77;8.17;;;13.20;1.00;;;;;;6337328;27;20712;-57
2022/04/21 15:24:24;;;;;;;8.90;8.30;;;13.20;1.00;;;;;;6331371;28;20912;-56
2022/04/21 15:27:27;;;;;;;9.20;8.60;;;13.20;1.00;;;;;;6334398;27;20231;-57
2022/04/21 15:30:35;;;;;;;8.43;7.93;;;13.10;1.00;;;;;;6328461;27;20746;-57
2022/04/21 15:33:40;;;;;;;9.53;8.93;;;13.10;1.00;;;;;;6331864;27;20240;-57
2022/04/21 15:36:44;;;;;;;9.63;9.00;;;13.10;1.00;;;;;;6333807;27;20351;-55
2022/04/21 15:39:48;;;;;;;9.53;8.93;;;13.00;1.00;;;;;;6332762;27;20258;-57
2022/04/21 15:42:51;;;;;;;8.83;8.33;;;13.00;1.00;;;;;;6334654;27;20373;-57
2022/04/21 15:45:54;;;;;;;9.80;9.30;;;13.00;1.00;;;;;;6336778;27;20829;-57
2022/04/21 15:48:58;;;;;;;9.53;8.83;;;13.10;1.00;;;;;;6332015;27;20228;-57
2022/04/21 15:52:02;;;;;;;9.20;8.60;;;13.00;1.00;;;;;;6334593;28;20320;-57
2022/04/21 16:02:01;;;;;;;9.10;8.40;;;13.10;1.00;;;;;;6254825;28;20312;-56
2022/04/21 16:05:06;;;;;;;9.40;8.70;;;13.20;1.00;;;;;;6254155;28;20711;-57
2022/04/21 16:08:09;;;;;;;8.80;8.30;;;13.30;1.00;;;;;;6303316;28;20253;-56
2022/04/21 16:11:12;;;;;;;8.97;8.47;;;13.40;1.00;;;;;;6305665;28;20244;-57
2022/04/21 16:14:15;;;;;;;9.13;8.50;;;13.50;1.00;;;;;;6311269;28;20721;-56
2022/04/21 16:17:38;;;;;;;10.17;9.43;;;13.60;1.00;;;;;;6303369;28;20424;-56
2022/04/21 16:20:43;;;;;;;10.77;9.90;;;13.60;99.90;;;;;;6308340;28;20713;-57
2022/04/21 16:23:46;;;;;;;27.27;24.80;;;13.80;99.90;;;;;;6309283;28;20281;-56
2022/04/21 16:26:48;;;;;;;25.23;23.00;;;13.80;99.90;;;;;;6309796;27;20704;-56
2022/04/21 16:29:52;;;;;;;30.97;27.77;;;13.80;99.90;;;;;;6319198;27;20378;-56
2022/04/21 16:32:55;;;;;;;35.73;32.13;;;13.80;99.90;;;;;;6305607;28;20229;-56
2022/04/21 16:35:59;;;;;;;40.00;35.80;;;13.80;99.90;;;;;;6302254;28;20553;-57
2022/04/21 16:39:02;;;;;;;33.47;29.30;;;13.90;99.90;;;;;;6309410;28;20273;-55
2022/04/21 16:42:07;;;;;;;24.87;22.37;;;13.90;99.90;;;;;;6299979;28;20721;-55
2022/04/21 16:45:10;;;;;;;21.77;19.70;;;13.90;99.90;;;;;;6308821;28;20724;-56
2022/04/21 16:48:13;;;;;;;16.20;14.80;;;13.90;99.90;;;;;;6309168;28;20241;-56
2022/04/21 16:51:17;;;;;;;13.37;12.17;;;13.90;99.90;;;;;;6307983;28;20267;-56
2022/04/21 16:54:20;;;;;;;12.33;11.20;;;13.90;99.90;;;;;;6305965;28;20255;-55
2022/04/21 16:57:23;;;;;;;12.83;11.73;;;13.80;99.90;;;;;;6307380;28;20582;-56
2022/04/21 17:03:46;;;;;;;29.63;25.47;;;13.70;99.90;;;;;;6302467;28;20486;-57
2022/04/21 17:06:51;;;;;;;30.63;27.40;;;13.60;99.90;;;;;;6307240;28;20610;-56
2022/04/21 17:09:53;;;;;;;27.73;24.50;;;13.50;99.90;;;;;;6305447;28;20798;-57
2022/04/21 17:12:56;;;;;;;26.33;21.07;;;13.50;99.90;;;;;;6310388;28;20374;-56
2022/04/21 17:15:59;;;;;;;23.50;20.03;;;13.40;99.90;;;;;;6309917;28;20262;-56
2022/04/21 17:19:02;;;;;;;19.13;17.27;;;13.50;99.90;;;;;;6303971;28;20229;-55
2022/04/21 17:22:07;;;;;;;14.53;13.13;;;13.40;99.90;;;;;;6302448;28;20220;-56